sensor_id;sensor_type;location;lat;lon;timestamp;pressure;altitude;pressure_sealevel;temperature
85302;BMP280;75707;46.948;7.410;2024-02-23T00:00:10;938.1921997;;;5.963134766
85302;BMP280;75707;46.948;7.410;2024-02-23T00:01:11;938.0615845;;;5.953063965
85302;BMP280;75707;46.948;7.410;2024-02-23T00:02:12;938.1796875;;;5.922851563
85302;BMP280;75707;46.948;7.410;2024-02-23T00:03:13;938.0957031;;;5.882568359
85302;BMP280;75707;46.948;7.410;2024-02-23T00:04:14;938.1118774;;;5.852355957
85302;BMP280;75707;46.948;7.410;2024-02-23T00:05:15;938.0825806;;;5.832214355
85302;BMP280;75707;46.948;7.410;2024-02-23T00:06:17;938.3074951;;;5.872497559
85302;BMP280;75707;46.948;7.410;2024-02-23T00:07:18;938.1656494;;;5.872497559
85302;BMP280;75707;46.948;7.410;2024-02-23T00:08:19;938.1884155;;;5.882568359
85302;BMP280;75707;46.948;7.410;2024-02-23T00:09:21;938.2659912;;;5.902709961
85302;BMP280;75707;46.948;7.410;2024-02-23T00:10:22;938.4000244;;;6.01348877
85302;BMP280;75707;46.948;7.410;2024-02-23T00:12:00;938.4540405;;;6.01348877
85302;BMP280;75707;46.948;7.410;2024-02-23T00:13:02;938.4251709;;;6.033630371
85302;BMP280;75707;46.948;7.410;2024-02-23T00:14:03;938.5145264;;;6.033630371
85302;BMP280;75707;46.948;7.410;2024-02-23T00:15:04;938.5697021;;;5.932922363
85302;BMP280;75707;46.948;7.410;2024-02-23T00:16:59;938.56073;;;5.922851563
85302;BMP280;75707;46.948;7.410;2024-02-23T00:18:01;938.5420532;;;5.902709961
85302;BMP280;75707;46.948;7.410;2024-02-23T00:19:02;938.546814;;;5.902709961
85302;BMP280;75707;46.948;7.410;2024-02-23T00:20:04;938.531311;;;5.872497559
85302;BMP280;75707;46.948;7.410;2024-02-23T00:21:04;938.4595337;;;5.953063965
85302;BMP280;75707;46.948;7.410;2024-02-23T00:22:06;938.5078125;;;5.993347168
85302;BMP280;75707;46.948;7.410;2024-02-23T00:23:07;938.5800171;;;5.993347168
85302;BMP280;75707;46.948;7.410;2024-02-23T00:24:08;938.5505371;;;6.01348877
85302;BMP280;75707;46.948;7.410;2024-02-23T00:25:09;938.6116943;;;5.993347168
85302;BMP280;75707;46.948;7.410;2024-02-23T00:26:10;938.5656128;;;5.993347168
85302;BMP280;75707;46.948;7.410;2024-02-23T00:27:12;938.4934082;;;6.01348877
85302;BMP280;75707;46.948;7.410;2024-02-23T00:28:12;938.5426636;;;6.02355957
85302;BMP280;75707;46.948;7.410;2024-02-23T00:29:13;938.5292358;;;6.02355957
85302;BMP280;75707;46.948;7.410;2024-02-23T00:30:14;938.5259399;;;6.02355957
85302;BMP280;75707;46.948;7.410;2024-02-23T00:31:15;938.5928345;;;5.993347168
85302;BMP280;75707;46.948;7.410;2024-02-23T00:32:16;938.586792;;;6.053771973
85302;BMP280;75707;46.948;7.410;2024-02-23T00:33:17;938.6415405;;;6.033630371
85302;BMP280;75707;46.948;7.410;2024-02-23T00:34:19;938.5101318;;;6.033630371
85302;BMP280;75707;46.948;7.410;2024-02-23T00:35:20;938.475769;;;6.053771973
85302;BMP280;75707;46.948;7.410;2024-02-23T00:36:21;938.4967041;;;6.063842773
85302;BMP280;75707;46.948;7.410;2024-02-23T00:37:22;938.5335083;;;6.134338379
85302;BMP280;75707;46.948;7.410;2024-02-23T00:39:00;938.5046997;;;6.164550781
85302;BMP280;75707;46.948;7.410;2024-02-23T00:40:01;938.510498;;;6.14440918
85302;BMP280;75707;46.948;7.410;2024-02-23T00:41:02;938.46875;;;6.194763184
85302;BMP280;75707;46.948;7.410;2024-02-23T00:42:02;938.6137695;;;6.194763184
85302;BMP280;75707;46.948;7.410;2024-02-23T00:43:59;938.6427612;;;6.235046387
85302;BMP280;75707;46.948;7.410;2024-02-23T00:45:00;938.6228027;;;6.194763184
85302;BMP280;75707;46.948;7.410;2024-02-23T00:46:01;938.6662598;;;6.194763184
85302;BMP280;75707;46.948;7.410;2024-02-23T00:47:02;938.673645;;;6.214904785
85302;BMP280;75707;46.948;7.410;2024-02-23T00:48:03;938.7203369;;;6.235046387
85302;BMP280;75707;46.948;7.410;2024-02-23T00:49:04;938.7203369;;;6.204833984
85302;BMP280;75707;46.948;7.410;2024-02-23T00:50:05;938.6855469;;;6.164550781
85302;BMP280;75707;46.948;7.410;2024-02-23T00:51:06;938.6367188;;;6.164550781
85302;BMP280;75707;46.948;7.410;2024-02-23T00:52:07;938.4525146;;;6.164550781
85302;BMP280;75707;46.948;7.410;2024-02-23T00:53:08;938.4020386;;;6.164550781
85302;BMP280;75707;46.948;7.410;2024-02-23T00:54:09;938.3850098;;;6.14440918
85302;BMP280;75707;46.948;7.410;2024-02-23T00:55:11;938.4605713;;;6.164550781
85302;BMP280;75707;46.948;7.410;2024-02-23T00:56:12;938.5354614;;;6.14440918
85302;BMP280;75707;46.948;7.410;2024-02-23T00:57:13;938.4760742;;;6.214904785
85302;BMP280;75707;46.948;7.410;2024-02-23T00:58:15;938.5028076;;;6.245117188
85302;BMP280;75707;46.948;7.410;2024-02-23T00:59:16;938.4025269;;;6.245117188
85302;BMP280;75707;46.948;7.410;2024-02-23T01:00:17;938.5115356;;;6.214904785
85302;BMP280;75707;46.948;7.410;2024-02-23T01:01:19;938.4177246;;;6.214904785
85302;BMP280;75707;46.948;7.410;2024-02-23T01:02:20;938.4628296;;;6.164550781
85302;BMP280;75707;46.948;7.410;2024-02-23T01:03:21;938.453064;;;6.114196777
85302;BMP280;75707;46.948;7.410;2024-02-23T01:05:00;938.3582764;;;6.164550781
85302;BMP280;75707;46.948;7.410;2024-02-23T01:06:01;938.407959;;;6.164550781
85302;BMP280;75707;46.948;7.410;2024-02-23T01:07:02;938.4434204;;;6.174621582
85302;BMP280;75707;46.948;7.410;2024-02-23T01:08:03;938.4438477;;;6.083984375
85302;BMP280;75707;46.948;7.410;2024-02-23T01:09:59;938.4017334;;;6.033630371
85302;BMP280;75707;46.948;7.410;2024-02-23T01:11:00;938.4729614;;;5.993347168
85302;BMP280;75707;46.948;7.410;2024-02-23T01:12:01;938.416748;;;5.983276367
85302;BMP280;75707;46.948;7.410;2024-02-23T01:13:02;938.3982544;;;5.983276367
85302;BMP280;75707;46.948;7.410;2024-02-23T01:14:03;938.3548584;;;5.983276367
85302;BMP280;75707;46.948;7.410;2024-02-23T01:15:04;938.3378296;;;5.983276367
85302;BMP280;75707;46.948;7.410;2024-02-23T01:16:05;938.3400269;;;6.02355957
85302;BMP280;75707;46.948;7.410;2024-02-23T01:17:06;938.3651733;;;6.053771973
85302;BMP280;75707;46.948;7.410;2024-02-23T01:18:07;938.364502;;;6.104125977
85302;BMP280;75707;46.948;7.410;2024-02-23T01:19:08;938.3880615;;;6.164550781
85302;BMP280;75707;46.948;7.410;2024-02-23T01:20:09;938.3253784;;;6.134338379
85302;BMP280;75707;46.948;7.410;2024-02-23T01:21:10;938.3864136;;;6.114196777
85302;BMP280;75707;46.948;7.410;2024-02-23T01:22:12;938.3410645;;;6.104125977
85302;BMP280;75707;46.948;7.410;2024-02-23T01:23:13;938.3920288;;;6.134338379
85302;BMP280;75707;46.948;7.410;2024-02-23T01:24:14;938.3534546;;;6.104125977
85302;BMP280;75707;46.948;7.410;2024-02-23T01:25:15;938.2720337;;;6.083984375
85302;BMP280;75707;46.948;7.410;2024-02-23T01:26:16;938.3914185;;;6.083984375
85302;BMP280;75707;46.948;7.410;2024-02-23T01:27:17;938.4450073;;;6.083984375
85302;BMP280;75707;46.948;7.410;2024-02-23T01:28:18;938.6802979;;;6.033630371
85302;BMP280;75707;46.948;7.410;2024-02-23T01:29:19;938.3934937;;;6.033630371
85302;BMP280;75707;46.948;7.410;2024-02-23T01:30:20;938.3222656;;;6.063842773
85302;BMP280;75707;46.948;7.410;2024-02-23T01:31:59;938.3180542;;;6.083984375
85302;BMP280;75707;46.948;7.410;2024-02-23T01:33:00;938.4213867;;;6.134338379
85302;BMP280;75707;46.948;7.410;2024-02-23T01:34:01;938.5089111;;;6.134338379
85302;BMP280;75707;46.948;7.410;2024-02-23T01:35:02;938.6364136;;;6.063842773
85302;BMP280;75707;46.948;7.410;2024-02-23T01:36:04;938.5090332;;;5.902709961
85302;BMP280;75707;46.948;7.410;2024-02-23T01:37:59;938.5231323;;;5.832214355
85302;BMP280;75707;46.948;7.410;2024-02-23T01:39:01;938.3574829;;;5.842285156
85302;BMP280;75707;46.948;7.410;2024-02-23T01:40:02;938.4824829;;;5.771789551
85302;BMP280;75707;46.948;7.410;2024-02-23T01:41:03;938.3650513;;;5.741577148
85302;BMP280;75707;46.948;7.410;2024-02-23T01:42:04;938.3903198;;;5.701293945
85302;BMP280;75707;46.948;7.410;2024-02-23T01:43:06;938.4012451;;;5.741577148
85302;BMP280;75707;46.948;7.410;2024-02-23T01:44:07;938.3937378;;;5.661010742
85302;BMP280;75707;46.948;7.410;2024-02-23T01:45:08;938.2946777;;;5.600585938
85302;BMP280;75707;46.948;7.410;2024-02-23T01:46:09;938.317749;;;5.560302734
85302;BMP280;75707;46.948;7.410;2024-02-23T01:47:10;938.4014282;;;5.520019531
85302;BMP280;75707;46.948;7.410;2024-02-23T01:48:12;938.3704834;;;5.50994873
85302;BMP280;75707;46.948;7.410;2024-02-23T01:49:13;938.3839111;;;5.489807129
85302;BMP280;75707;46.948;7.410;2024-02-23T01:50:15;938.3651733;;;5.50994873
85302;BMP280;75707;46.948;7.410;2024-02-23T01:51:16;938.3357544;;;5.520019531
85302;BMP280;75707;46.948;7.410;2024-02-23T01:52:17;938.3546753;;;5.50994873
85302;BMP280;75707;46.948;7.410;2024-02-23T01:53:18;938.3311157;;;5.520019531
85302;BMP280;75707;46.948;7.410;2024-02-23T01:54:20;938.2695923;;;5.550231934
85302;BMP280;75707;46.948;7.410;2024-02-23T01:55:21;938.2910156;;;5.550231934
85302;BMP280;75707;46.948;7.410;2024-02-23T01:56:23;938.1732788;;;5.479736328
85302;BMP280;75707;46.948;7.410;2024-02-23T01:58:02;938.0282593;;;5.550231934
85302;BMP280;75707;46.948;7.410;2024-02-23T01:59:03;938.0048218;;;5.590515137
85302;BMP280;75707;46.948;7.410;2024-02-23T02:00:04;937.9935913;;;5.600585938
85302;BMP280;75707;46.948;7.410;2024-02-23T02:01:05;937.8965454;;;5.671081543
85302;BMP280;75707;46.948;7.410;2024-02-23T02:03:02;937.8638916;;;5.701293945
85302;BMP280;75707;46.948;7.410;2024-02-23T02:04:03;937.8093262;;;5.671081543
85302;BMP280;75707;46.948;7.410;2024-02-23T02:05:04;937.8065796;;;5.731506348
85302;BMP280;75707;46.948;7.410;2024-02-23T02:06:06;937.7706299;;;5.691223145
85302;BMP280;75707;46.948;7.410;2024-02-23T02:07:07;937.755127;;;5.691223145
85302;BMP280;75707;46.948;7.410;2024-02-23T02:08:08;937.8001709;;;5.63079834
85302;BMP280;75707;46.948;7.410;2024-02-23T02:09:09;937.8146362;;;5.661010742
85302;BMP280;75707;46.948;7.410;2024-02-23T02:10:10;937.8370972;;;5.63079834
85302;BMP280;75707;46.948;7.410;2024-02-23T02:11:11;937.8364258;;;5.620727539
85302;BMP280;75707;46.948;7.410;2024-02-23T02:12:12;937.9093628;;;5.650939941
85302;BMP280;75707;46.948;7.410;2024-02-23T02:13:13;938.0115356;;;5.63079834
85302;BMP280;75707;46.948;7.410;2024-02-23T02:14:15;937.9559326;;;5.620727539
85302;BMP280;75707;46.948;7.410;2024-02-23T02:15:15;937.8182983;;;5.560302734
85302;BMP280;75707;46.948;7.410;2024-02-23T02:16:17;937.8414307;;;5.520019531
85302;BMP280;75707;46.948;7.410;2024-02-23T02:17:18;937.7873535;;;5.560302734
85302;BMP280;75707;46.948;7.410;2024-02-23T02:18:19;937.7960815;;;5.560302734
85302;BMP280;75707;46.948;7.410;2024-02-23T02:19:20;937.750061;;;5.560302734
85302;BMP280;75707;46.948;7.410;2024-02-23T02:20:23;937.7259521;;;5.560302734
85302;BMP280;75707;46.948;7.410;2024-02-23T02:21:22;937.7167358;;;5.580444336
85302;BMP280;75707;46.948;7.410;2024-02-23T02:22:23;937.7141113;;;5.63079834
85302;BMP280;75707;46.948;7.410;2024-02-23T02:23:24;937.7199707;;;5.671081543
85302;BMP280;75707;46.948;7.410;2024-02-23T02:25:01;937.7161865;;;5.650939941
85302;BMP280;75707;46.948;7.410;2024-02-23T02:26:03;937.7090454;;;5.661010742
85302;BMP280;75707;46.948;7.410;2024-02-23T02:27:07;937.7165527;;;5.63079834
85302;BMP280;75707;46.948;7.410;2024-02-23T02:28:09;937.6925049;;;5.650939941
85302;BMP280;75707;46.948;7.410;2024-02-23T02:29:13;937.6973267;;;5.650939941
85302;BMP280;75707;46.948;7.410;2024-02-23T02:30:16;937.755127;;;5.600585938
85302;BMP280;75707;46.948;7.410;2024-02-23T02:31:19;937.7876587;;;5.600585938
85302;BMP280;75707;46.948;7.410;2024-02-23T02:32:23;937.7867432;;;5.620727539
85302;BMP280;75707;46.948;7.410;2024-02-23T02:33:26;937.7851563;;;5.650939941
85302;BMP280;75707;46.948;7.410;2024-02-23T02:34:30;937.743103;;;5.671081543
85302;BMP280;75707;46.948;7.410;2024-02-23T02:36:05;937.6847534;;;5.741577148
85302;BMP280;75707;46.948;7.410;2024-02-23T02:37:08;937.6890869;;;5.771789551
85302;BMP280;75707;46.948;7.410;2024-02-23T02:38:11;937.7109375;;;5.802001953
85302;BMP280;75707;46.948;7.410;2024-02-23T02:39:15;937.748291;;;5.741577148
85302;BMP280;75707;46.948;7.410;2024-02-23T02:40:18;937.6882324;;;5.691223145
85302;BMP280;75707;46.948;7.410;2024-02-23T02:41:22;937.6818848;;;5.731506348
85302;BMP280;75707;46.948;7.410;2024-02-23T02:42:25;937.7224121;;;5.771789551
85302;BMP280;75707;46.948;7.410;2024-02-23T02:43:28;937.7388916;;;5.872497559
85302;BMP280;75707;46.948;7.410;2024-02-23T02:45:04;937.7296753;;;5.832214355
85302;BMP280;75707;46.948;7.410;2024-02-23T02:46:08;937.718811;;;5.832214355
85302;BMP280;75707;46.948;7.410;2024-02-23T02:47:11;937.6118774;;;5.812072754
85302;BMP280;75707;46.948;7.410;2024-02-23T02:48:14;937.6015625;;;5.832214355
85302;BMP280;75707;46.948;7.410;2024-02-23T02:49:17;937.5523682;;;5.812072754
85302;BMP280;75707;46.948;7.410;2024-02-23T02:50:20;937.5662231;;;5.802001953
85302;BMP280;75707;46.948;7.410;2024-02-23T02:51:23;937.5845337;;;5.781860352
85302;BMP280;75707;46.948;7.410;2024-02-23T02:52:26;937.4607544;;;5.741577148
85302;BMP280;75707;46.948;7.410;2024-02-23T02:53:28;937.3704834;;;5.751647949
85302;BMP280;75707;46.948;7.410;2024-02-23T02:55:02;937.3762207;;;5.691223145
85302;BMP280;75707;46.948;7.410;2024-02-23T02:56:05;937.2701416;;;5.741577148
85302;BMP280;75707;46.948;7.410;2024-02-23T02:57:06;937.3510742;;;5.812072754
85302;BMP280;75707;46.948;7.410;2024-02-23T02:58:08;937.3382568;;;5.781860352
85302;BMP280;75707;46.948;7.410;2024-02-23T02:59:10;937.3504639;;;5.771789551
85302;BMP280;75707;46.948;7.410;2024-02-23T03:00:12;937.3215332;;;5.731506348
85302;BMP280;75707;46.948;7.410;2024-02-23T03:01:13;937.2391968;;;5.671081543
85302;BMP280;75707;46.948;7.410;2024-02-23T03:02:15;937.3106079;;;5.671081543
85302;BMP280;75707;46.948;7.410;2024-02-23T03:03:17;937.2954712;;;5.620727539
85302;BMP280;75707;46.948;7.410;2024-02-23T03:04:19;937.2944336;;;5.650939941
85302;BMP280;75707;46.948;7.410;2024-02-23T03:05:21;937.4556885;;;5.671081543
85302;BMP280;75707;46.948;7.410;2024-02-23T03:06:23;937.3953247;;;5.661010742
85302;BMP280;75707;46.948;7.410;2024-02-23T03:07:25;937.4065552;;;5.701293945
85302;BMP280;75707;46.948;7.410;2024-02-23T03:08:27;937.4332275;;;5.741577148
85302;BMP280;75707;46.948;7.410;2024-02-23T03:09:29;937.4852905;;;5.661010742
85302;BMP280;75707;46.948;7.410;2024-02-23T03:11:03;937.387207;;;5.650939941
85302;BMP280;75707;46.948;7.410;2024-02-23T03:12:05;937.3588867;;;5.671081543
85302;BMP280;75707;46.948;7.410;2024-02-23T03:13:07;937.3027344;;;5.671081543
85302;BMP280;75707;46.948;7.410;2024-02-23T03:14:10;937.2459106;;;5.701293945
85302;BMP280;75707;46.948;7.410;2024-02-23T03:15:12;937.3095093;;;5.741577148
85302;BMP280;75707;46.948;7.410;2024-02-23T03:16:14;937.3613281;;;5.751647949
85302;BMP280;75707;46.948;7.410;2024-02-23T03:17:17;937.3897095;;;5.781860352
85302;BMP280;75707;46.948;7.410;2024-02-23T03:18:19;937.3939209;;;5.832214355
85302;BMP280;75707;46.948;7.410;2024-02-23T03:19:21;937.3634644;;;5.872497559
85302;BMP280;75707;46.948;7.410;2024-02-23T03:20:24;937.375;;;5.852355957
85302;BMP280;75707;46.948;7.410;2024-02-23T03:21:26;937.3476563;;;5.812072754
85302;BMP280;75707;46.948;7.410;2024-02-23T03:22:29;937.2924194;;;5.781860352
85302;BMP280;75707;46.948;7.410;2024-02-23T03:24:03;937.288269;;;5.731506348
85302;BMP280;75707;46.948;7.410;2024-02-23T03:25:05;937.2908325;;;5.741577148
85302;BMP280;75707;46.948;7.410;2024-02-23T03:26:08;937.2634888;;;5.781860352
85302;BMP280;75707;46.948;7.410;2024-02-23T03:27:10;937.3208008;;;5.812072754
85302;BMP280;75707;46.948;7.410;2024-02-23T03:28:12;937.2061157;;;5.852355957
85302;BMP280;75707;46.948;7.410;2024-02-23T03:29:15;937.1856079;;;5.922851563
85302;BMP280;75707;46.948;7.410;2024-02-23T03:30:17;937.206543;;;5.963134766
85302;BMP280;75707;46.948;7.410;2024-02-23T03:31:19;937.1210938;;;5.922851563
85302;BMP280;75707;46.948;7.410;2024-02-23T03:32:22;937.1057739;;;5.882568359
85302;BMP280;75707;46.948;7.410;2024-02-23T03:33:24;937.0681152;;;5.882568359
85302;BMP280;75707;46.948;7.410;2024-02-23T03:34:26;937.0264282;;;5.872497559
85302;BMP280;75707;46.948;7.410;2024-02-23T03:35:29;937.0270386;;;5.842285156
85302;BMP280;75707;46.948;7.410;2024-02-23T03:37:04;937.0222168;;;5.882568359
85302;BMP280;75707;46.948;7.410;2024-02-23T03:38:07;937.0134277;;;5.842285156
85302;BMP280;75707;46.948;7.410;2024-02-23T03:39:10;937.0137329;;;5.872497559
85302;BMP280;75707;46.948;7.410;2024-02-23T03:40:13;937.053894;;;5.771789551
85302;BMP280;75707;46.948;7.410;2024-02-23T03:41:16;937.0625;;;5.701293945
85302;BMP280;75707;46.948;7.410;2024-02-23T03:42:19;937.0765381;;;5.691223145
85302;BMP280;75707;46.948;7.410;2024-02-23T03:43:22;937.1211548;;;5.731506348
85302;BMP280;75707;46.948;7.410;2024-02-23T03:44:25;937.1239624;;;5.671081543
85302;BMP280;75707;46.948;7.410;2024-02-23T03:45:28;937.1842041;;;5.590515137
85302;BMP280;75707;46.948;7.410;2024-02-23T03:47:02;937.1115112;;;5.520019531
85302;BMP280;75707;46.948;7.410;2024-02-23T03:48:04;937.1560669;;;5.50994873
85302;BMP280;75707;46.948;7.410;2024-02-23T03:49:06;937.138916;;;5.479736328
85302;BMP280;75707;46.948;7.410;2024-02-23T03:50:08;937.1135254;;;5.479736328
85302;BMP280;75707;46.948;7.410;2024-02-23T03:51:10;937.0877075;;;5.479736328
85302;BMP280;75707;46.948;7.410;2024-02-23T03:52:13;937.0985718;;;5.449523926
85302;BMP280;75707;46.948;7.410;2024-02-23T03:53:15;937.1151733;;;5.489807129
85302;BMP280;75707;46.948;7.410;2024-02-23T03:54:18;937.0795288;;;5.489807129
85302;BMP280;75707;46.948;7.410;2024-02-23T03:55:20;937.0842896;;;5.550231934
85302;BMP280;75707;46.948;7.410;2024-02-23T03:56:22;937.1031494;;;5.50994873
85302;BMP280;75707;46.948;7.410;2024-02-23T03:57:25;937.1384888;;;5.550231934
85302;BMP280;75707;46.948;7.410;2024-02-23T03:58:27;937.0882568;;;5.520019531
85302;BMP280;75707;46.948;7.410;2024-02-23T04:00:01;937.0271606;;;5.469665527
85302;BMP280;75707;46.948;7.410;2024-02-23T04:01:03;937.0246582;;;5.479736328
85302;BMP280;75707;46.948;7.410;2024-02-23T04:02:06;937.0471191;;;5.50994873
85302;BMP280;75707;46.948;7.410;2024-02-23T04:03:08;936.9519653;;;5.50994873
85302;BMP280;75707;46.948;7.410;2024-02-23T04:04:10;936.9558105;;;5.50994873
85302;BMP280;75707;46.948;7.410;2024-02-23T04:05:13;936.946167;;;5.550231934
85302;BMP280;75707;46.948;7.410;2024-02-23T04:06:15;936.9252319;;;5.520019531
85302;BMP280;75707;46.948;7.410;2024-02-23T04:07:17;936.880249;;;5.520019531
85302;BMP280;75707;46.948;7.410;2024-02-23T04:08:19;936.866394;;;5.550231934
85302;BMP280;75707;46.948;7.410;2024-02-23T04:09:21;936.7668457;;;5.520019531
85302;BMP280;75707;46.948;7.410;2024-02-23T04:10:23;936.6994019;;;5.50994873
85302;BMP280;75707;46.948;7.410;2024-02-23T04:11:25;936.6903076;;;5.50994873
85302;BMP280;75707;46.948;7.410;2024-02-23T04:12:27;936.7034302;;;5.479736328
85302;BMP280;75707;46.948;7.410;2024-02-23T04:14:00;936.664856;;;5.449523926
85302;BMP280;75707;46.948;7.410;2024-02-23T04:15:02;936.6676636;;;5.449523926
85302;BMP280;75707;46.948;7.410;2024-02-23T04:16:04;936.6595459;;;5.449523926
85302;BMP280;75707;46.948;7.410;2024-02-23T04:17:06;936.6495361;;;5.469665527
85302;BMP280;75707;46.948;7.410;2024-02-23T04:18:08;936.6704102;;;5.489807129
85302;BMP280;75707;46.948;7.410;2024-02-23T04:19:10;936.6880493;;;5.469665527
85302;BMP280;75707;46.948;7.410;2024-02-23T04:20:12;936.6638794;;;5.479736328
85302;BMP280;75707;46.948;7.410;2024-02-23T04:21:14;936.7069702;;;5.479736328
85302;BMP280;75707;46.948;7.410;2024-02-23T04:22:16;936.7004395;;;5.469665527
85302;BMP280;75707;46.948;7.410;2024-02-23T04:23:18;936.7156372;;;5.449523926
85302;BMP280;75707;46.948;7.410;2024-02-23T04:24:20;936.7129517;;;5.409240723
85302;BMP280;75707;46.948;7.410;2024-02-23T04:25:22;936.6846924;;;5.348815918
85302;BMP280;75707;46.948;7.410;2024-02-23T04:26:25;936.708252;;;5.328674316
85302;BMP280;75707;46.948;7.410;2024-02-23T04:27:27;936.744751;;;5.318603516
85302;BMP280;75707;46.948;7.410;2024-02-23T04:29:00;936.7796631;;;5.258178711
85302;BMP280;75707;46.948;7.410;2024-02-23T04:30:03;936.8342285;;;5.227966309
85302;BMP280;75707;46.948;7.410;2024-02-23T04:31:05;936.8996582;;;5.227966309
85302;BMP280;75707;46.948;7.410;2024-02-23T04:32:07;936.8344727;;;5.227966309
85302;BMP280;75707;46.948;7.410;2024-02-23T04:33:09;936.803894;;;5.197753906
85302;BMP280;75707;46.948;7.410;2024-02-23T04:34:11;936.8098145;;;5.197753906
85302;BMP280;75707;46.948;7.410;2024-02-23T04:35:13;936.8175049;;;5.217895508
85302;BMP280;75707;46.948;7.410;2024-02-23T04:36:18;936.7800293;;;5.238037109
85302;BMP280;75707;46.948;7.410;2024-02-23T04:37:17;936.7988281;;;5.238037109
85302;BMP280;75707;46.948;7.410;2024-02-23T04:38:19;936.7746582;;;5.288391113
85302;BMP280;75707;46.948;7.410;2024-02-23T04:39:21;936.7740479;;;5.318603516
85302;BMP280;75707;46.948;7.410;2024-02-23T04:40:23;936.7577515;;;5.288391113
85302;BMP280;75707;46.948;7.410;2024-02-23T04:41:25;936.737793;;;5.298461914
85302;BMP280;75707;46.948;7.410;2024-02-23T04:42:27;936.723999;;;5.328674316
85302;BMP280;75707;46.948;7.410;2024-02-23T04:44:01;936.6886597;;;5.36895752
85302;BMP280;75707;46.948;7.410;2024-02-23T04:45:03;936.6815796;;;5.348815918
85302;BMP280;75707;46.948;7.410;2024-02-23T04:46:05;936.673584;;;5.37902832
85302;BMP280;75707;46.948;7.410;2024-02-23T04:47:07;936.6800537;;;5.36895752
85302;BMP280;75707;46.948;7.410;2024-02-23T04:48:09;936.630249;;;5.348815918
85302;BMP280;75707;46.948;7.410;2024-02-23T04:49:10;936.6751709;;;5.37902832
85302;BMP280;75707;46.948;7.410;2024-02-23T04:50:12;936.6774292;;;5.409240723
85302;BMP280;75707;46.948;7.410;2024-02-23T04:51:14;936.6710815;;;5.419311523
85302;BMP280;75707;46.948;7.410;2024-02-23T04:52:16;936.7288208;;;5.439453125
85302;BMP280;75707;46.948;7.410;2024-02-23T04:53:18;936.7201538;;;5.419311523
85302;BMP280;75707;46.948;7.410;2024-02-23T04:54:20;936.7185669;;;5.419311523
85302;BMP280;75707;46.948;7.410;2024-02-23T04:55:22;936.7426758;;;5.37902832
85302;BMP280;75707;46.948;7.410;2024-02-23T04:56:23;936.7554932;;;5.348815918
85302;BMP280;75707;46.948;7.410;2024-02-23T04:57:25;936.8154907;;;5.318603516
85302;BMP280;75707;46.948;7.410;2024-02-23T04:58:27;936.852356;;;5.227966309
85302;BMP280;75707;46.948;7.410;2024-02-23T05:00:00;936.8695068;;;5.227966309
85302;BMP280;75707;46.948;7.410;2024-02-23T05:01:02;936.8798218;;;5.217895508
85302;BMP280;75707;46.948;7.410;2024-02-23T05:02:04;936.8771973;;;5.187683105
85302;BMP280;75707;46.948;7.410;2024-02-23T05:03:06;936.9542236;;;5.137329102
85302;BMP280;75707;46.948;7.410;2024-02-23T05:04:08;936.9489136;;;5.1171875
85302;BMP280;75707;46.948;7.410;2024-02-23T05:05:10;936.9816284;;;5.086975098
85302;BMP280;75707;46.948;7.410;2024-02-23T05:06:12;937.0101318;;;5.107116699
85302;BMP280;75707;46.948;7.410;2024-02-23T05:07:14;937.0203247;;;5.076904297
85302;BMP280;75707;46.948;7.410;2024-02-23T05:08:16;937.0134277;;;5.076904297
85302;BMP280;75707;46.948;7.410;2024-02-23T05:09:18;936.9786987;;;5.056762695
85302;BMP280;75707;46.948;7.410;2024-02-23T05:10:20;937.0215454;;;5.056762695
85302;BMP280;75707;46.948;7.410;2024-02-23T05:11:22;937.1001587;;;5.036621094
85302;BMP280;75707;46.948;7.410;2024-02-23T05:12:25;937.1045532;;;5.036621094
85302;BMP280;75707;46.948;7.410;2024-02-23T05:13:27;937.038208;;;4.98626709
85302;BMP280;75707;46.948;7.410;2024-02-23T05:15:00;937.032959;;;5.006408691
85302;BMP280;75707;46.948;7.410;2024-02-23T05:16:03;937.0357666;;;5.036621094
85302;BMP280;75707;46.948;7.410;2024-02-23T05:17:05;936.9393921;;;5.016479492
85302;BMP280;75707;46.948;7.410;2024-02-23T05:18:07;936.972168;;;5.016479492
85302;BMP280;75707;46.948;7.410;2024-02-23T05:19:09;936.9695435;;;5.056762695
85302;BMP280;75707;46.948;7.410;2024-02-23T05:20:12;936.958252;;;5.076904297
85302;BMP280;75707;46.948;7.410;2024-02-23T05:21:14;937.0240479;;;5.1171875
85302;BMP280;75707;46.948;7.410;2024-02-23T05:22:16;937.0651855;;;5.167541504
85302;BMP280;75707;46.948;7.410;2024-02-23T05:23:18;937.0388794;;;5.147399902
85302;BMP280;75707;46.948;7.410;2024-02-23T05:24:20;937.0687256;;;5.167541504
85302;BMP280;75707;46.948;7.410;2024-02-23T05:25:23;937.0479736;;;5.217895508
85302;BMP280;75707;46.948;7.410;2024-02-23T05:26:25;937.0516357;;;5.217895508
85302;BMP280;75707;46.948;7.410;2024-02-23T05:27:27;937.0477905;;;5.227966309
85302;BMP280;75707;46.948;7.410;2024-02-23T05:29:01;936.9712524;;;5.238037109
85302;BMP280;75707;46.948;7.410;2024-02-23T05:30:03;936.9312744;;;5.288391113
85302;BMP280;75707;46.948;7.410;2024-02-23T05:31:06;936.8995361;;;5.268249512